Time;durP1;ratioP1;P1;durP2;ratioP2;P2;SDS_P1;SDS_P2;PMS_P1;PMS_P2;Temp;Humidity;BMP_temperature;BMP_pressure;BME280_temperature;BME280_humidity;BME280_pressure;Samples;Min_cycle;Max_cycle;Signal;HPM_P1;HPM_P2
2022/11/29 00:00:14;;;;;;;27.73;15.25;;;;;;;8.26;84.69;99235.03;341598;28;1092;-72
2022/11/29 00:00:27;;;;;;;27.73;14.90;;;;;;;8.25;84.64;99241.94;342728;28;1248;-72
2022/11/29 00:00:40;;;;;;;25.63;15.10;;;;;;;8.22;84.45;99236.84;342568;28;1641;-72
2022/11/29 00:00:52;;;;;;;24.48;15.05;;;;;;;8.26;84.61;99235.88;344339;28;1194;-72
2022/11/29 00:01:05;;;;;;;24.92;14.55;;;;;;;8.24;84.35;99231.63;343839;28;1907;-72
2022/11/29 00:01:20;;;;;;;26.17;14.40;;;;;;;8.22;84.23;99236.00;343217;28;1215;-72
2022/11/29 00:01:33;;;;;;;27.65;14.52;;;;;;;8.24;84.69;99232.47;341748;28;1124;-72
2022/11/29 00:01:45;;;;;;;27.40;14.60;;;;;;;8.24;85.44;99229.88;341981;28;1048;-72
2022/11/29 00:01:57;;;;;;;26.88;14.82;;;;;;;8.31;85.34;99241.78;339998;28;1652;-72
2022/11/29 00:02:10;;;;;;;24.23;14.57;;;;;;;8.34;85.42;99244.25;339748;29;2248;-72
2022/11/29 00:02:22;;;;;;;23.80;14.43;;;;;;;8.39;85.47;99237.19;340417;29;1231;-72
2022/11/29 00:02:34;;;;;;;25.92;14.57;;;;;;;8.45;85.23;99235.34;340567;29;1130;-72
2022/11/29 00:02:46;;;;;;;26.10;14.82;;;;;;;8.50;85.41;99241.25;340872;29;1029;-72
2022/11/29 00:02:59;;;;;;;24.13;14.35;;;;;;;8.52;85.30;99236.84;339696;29;1162;-72
2022/11/29 00:03:12;;;;;;;24.40;14.45;;;;;;;8.56;85.28;99234.13;339667;29;1959;-72
2022/11/29 00:03:25;;;;;;;24.75;14.35;;;;;;;8.60;85.26;99235.72;341658;28;1285;-72
2022/11/29 00:03:38;;;;;;;25.83;14.82;;;;;;;8.65;85.19;99237.31;341428;28;1774;-72
2022/11/29 00:03:51;;;;;;;25.23;14.50;;;;;;;8.68;85.15;99235.47;341920;28;1217;-72
2022/11/29 00:04:03;;;;;;;24.05;14.63;;;;;;;8.71;85.27;99235.41;343818;28;2354;-72
2022/11/29 00:04:15;;;;;;;24.40;14.60;;;;;;;8.76;85.00;99232.66;342357;28;1856;-72
2022/11/29 00:04:27;;;;;;;23.60;14.15;;;;;;;8.79;84.95;99233.41;343017;28;1780;-72
2022/11/29 00:04:39;;;;;;;23.17;13.88;;;;;;;8.83;85.15;99230.69;343345;28;1195;-72
2022/11/29 00:04:51;;;;;;;24.02;14.45;;;;;;;8.86;84.81;99240.97;343164;28;1031;-72
2022/11/29 00:05:04;;;;;;;22.77;14.15;;;;;;;8.89;84.96;99235.69;343527;28;1691;-72
2022/11/29 00:05:15;;;;;;;24.25;14.20;;;;;;;8.92;84.94;99230.41;342797;28;1872;-72
2022/11/29 00:05:28;;;;;;;26.35;14.05;;;;;;;8.95;84.77;99235.47;343087;28;1023;-72
2022/11/29 00:05:40;;;;;;;24.00;13.52;;;;;;;8.97;84.65;99231.09;344260;28;1191;-72
2022/11/29 00:05:52;;;;;;;26.33;14.00;;;;;;;9.01;84.61;99235.28;341988;28;1289;-72
2022/11/29 00:06:07;;;;;;;28.17;14.38;;;;;;;9.03;84.48;99228.31;341875;28;1322;-72
2022/11/29 00:06:21;;;;;;;27.52;14.25;;;;;;;9.07;84.61;99229.88;343149;28;1925;-72
2022/11/29 00:06:34;;;;;;;24.92;13.98;;;;;;;9.03;84.78;99230.06;343745;28;1543;-72
2022/11/29 00:06:46;;;;;;;26.40;14.88;;;;;;;8.99;84.68;99231.91;344501;28;1079;-72
2022/11/29 00:06:58;;;;;;;28.75;15.50;;;;;;;8.96;84.60;99232.84;344474;28;1149;-72
2022/11/29 00:07:09;;;;;;;28.20;15.00;;;;;;;8.92;84.78;99235.59;344682;28;1119;-72
2022/11/29 00:07:21;;;;;;;27.60;14.50;;;;;;;8.94;84.58;99233.81;344304;28;1332;-72
2022/11/29 00:07:33;;;;;;;25.50;14.45;;;;;;;8.94;84.95;99228.63;343539;28;1913;-72
2022/11/29 00:07:46;;;;;;;22.60;14.00;;;;;;;8.88;84.23;99234.00;343682;28;1531;-72
2022/11/29 00:07:58;;;;;;;23.15;14.00;;;;;;;8.81;84.53;99228.16;343429;28;1086;-72
2022/11/29 00:08:11;;;;;;;26.10;14.25;;;;;;;8.79;84.48;99236.00;343265;28;1055;-72
2022/11/29 00:08:23;;;;;;;25.90;14.30;;;;;;;8.69;84.59;99229.41;343261;28;1133;-72
2022/11/29 00:08:36;;;;;;;25.63;14.35;;;;;;;8.72;84.67;99237.06;342655;28;1820;-72
2022/11/29 00:08:49;;;;;;;29.35;14.57;;;;;;;8.68;84.65;99232.88;341975;28;1727;-72
2022/11/29 00:09:07;;;;;;;29.20;14.75;;;;;;;8.67;84.81;99233.81;341001;28;3078;-72
2022/11/29 00:09:19;;;;;;;23.58;14.77;;;;;;;8.66;84.77;99237.28;341741;28;2000;-72
2022/11/29 00:09:31;;;;;;;23.67;14.82;;;;;;;8.61;84.75;99236.56;344953;28;1860;-72
2022/11/29 00:09:43;;;;;;;24.45;15.07;;;;;;;8.60;84.92;99229.69;344101;28;2380;-72
2022/11/29 00:09:55;;;;;;;27.00;15.90;;;;;;;8.57;84.81;99232.38;343317;28;1819;-72
2022/11/29 00:10:08;;;;;;;26.98;15.43;;;;;;;8.53;84.85;99238.53;343573;28;1024;-72
2022/11/29 00:10:20;;;;;;;26.58;14.80;;;;;;;8.57;84.83;99235.81;343350;28;1792;-72
2022/11/29 00:10:37;;;;;;;26.00;14.40;;;;;;;8.56;84.80;99233.28;343536;28;1155;-72
2022/11/29 00:10:49;;;;;;;25.40;14.85;;;;;;;8.55;84.78;99231.56;344769;28;1205;-71
2022/11/29 00:11:03;;;;;;;26.77;15.43;;;;;;;8.50;84.48;99233.47;345014;28;2732;-72
2022/11/29 00:12:11;;;;;;;25.63;14.90;;;;;;;8.31;84.01;99234.00;343715;28;1031;-72
2022/11/29 00:12:23;;;;;;;24.77;15.02;;;;;;;8.29;84.31;99230.59;345106;28;1350;-72
2022/11/29 00:12:35;;;;;;;26.95;15.07;;;;;;;8.30;84.20;99232.28;343406;28;1590;-72
2022/11/29 00:12:47;;;;;;;26.33;15.13;;;;;;;8.29;84.50;99230.59;343041;28;1796;-71
2022/11/29 00:12:59;;;;;;;24.27;14.70;;;;;;;8.25;84.10;99229.00;343307;28;1084;-71
2022/11/29 00:13:11;;;;;;;26.55;15.07;;;;;;;8.24;84.31;99232.47;343771;28;1008;-71
2022/11/29 00:13:23;;;;;;;27.88;15.30;;;;;;;8.23;85.42;99228.19;343013;28;1256;-71
2022/11/29 00:13:35;;;;;;;27.25;15.55;;;;;;;8.23;85.46;99230.78;343431;28;1191;-71
2022/11/29 00:13:47;;;;;;;25.58;15.35;;;;;;;8.29;85.77;99228.03;343278;28;1068;-71
2022/11/29 00:13:59;;;;;;;25.55;15.15;;;;;;;8.35;85.81;99230.41;343391;28;1091;-71
2022/11/29 00:14:14;;;;;;;23.17;14.68;;;;;;;8.40;85.90;99228.53;342042;28;1278;-71
2022/11/29 00:14:28;;;;;;;21.73;14.15;;;;;;;8.46;85.69;99229.28;341638;28;1748;-72
2022/11/29 00:14:40;;;;;;;22.30;14.35;;;;;;;8.52;85.83;99229.09;341655;28;1155;-72
2022/11/29 00:14:52;;;;;;;23.52;14.25;;;;;;;8.56;85.58;99228.09;340338;28;1746;-72
2022/11/29 00:15:05;;;;;;;24.73;14.48;;;;;;;8.59;85.85;99233.16;341487;28;2578;-72
2022/11/29 00:15:17;;;;;;;23.88;14.10;;;;;;;8.63;85.54;99229.56;341875;28;1944;-71
2022/11/29 00:15:29;;;;;;;24.25;13.88;;;;;;;8.65;85.60;99232.97;341972;28;1127;-71
2022/11/29 00:15:41;;;;;;;22.70;13.85;;;;;;;8.69;85.33;99234.59;341679;28;1781;-71
2022/11/29 00:15:52;;;;;;;23.23;14.10;;;;;;;8.72;85.46;99234.47;343747;28;1866;-71
2022/11/29 00:16:07;;;;;;;23.55;14.05;;;;;;;8.75;85.42;99231.81;343603;28;1042;-71
2022/11/29 00:16:19;;;;;;;25.90;14.60;;;;;;;8.79;85.25;99225.63;343662;28;1332;-71
2022/11/29 00:16:32;;;;;;;27.83;14.95;;;;;;;8.84;85.29;99229.81;343929;28;1609;-71
2022/11/29 00:16:48;;;;;;;23.42;13.85;;;;;;;8.88;85.15;99229.66;343807;28;1078;-71
2022/11/29 00:17:01;;;;;;;22.25;13.25;;;;;;;8.92;85.10;99235.59;344752;28;1068;-71
2022/11/29 00:17:14;;;;;;;25.08;13.70;;;;;;;8.95;85.09;99232.88;344961;28;1489;-72
2022/11/29 00:17:26;;;;;;;23.65;13.75;;;;;;;8.98;84.99;99231.06;345043;28;1258;-72
2022/11/29 00:17:38;;;;;;;24.35;13.82;;;;;;;9.02;84.73;99230.97;345109;28;1993;-72
2022/11/29 00:17:50;;;;;;;23.60;13.93;;;;;;;9.04;84.94;99230.00;343953;28;1927;-72
2022/11/29 00:18:02;;;;;;;25.25;14.35;;;;;;;9.07;84.61;99232.47;343775;28;1390;-72
2022/11/29 00:18:14;;;;;;;25.65;14.40;;;;;;;9.09;84.57;99232.44;342276;28;1837;-72
2022/11/29 00:18:26;;;;;;;27.58;14.70;;;;;;;9.00;84.82;99233.59;343791;28;1094;-72
2022/11/29 00:18:38;;;;;;;27.08;14.98;;;;;;;8.98;84.97;99230.22;343620;28;1320;-72
2022/11/29 00:18:50;;;;;;;25.30;15.20;;;;;;;8.96;84.91;99227.66;344443;28;1190;-72
2022/11/29 00:19:02;;;;;;;25.42;15.40;;;;;;;8.99;84.73;99227.56;343733;28;1103;-72
2022/11/29 00:19:15;;;;;;;25.00;15.38;;;;;;;9.01;84.80;99230.09;343234;28;1720;-72
2022/11/29 00:19:28;;;;;;;27.33;15.90;;;;;;;8.97;84.87;99224.19;343588;28;1038;-72
2022/11/29 00:19:40;;;;;;;27.02;15.95;;;;;;;8.87;84.32;99237.47;343940;28;1071;-72
2022/11/29 00:19:52;;;;;;;28.50;16.13;;;;;;;8.83;84.59;99233.28;342237;28;1337;-72
2022/11/29 00:20:05;;;;;;;28.33;15.70;;;;;;;8.79;84.82;99229.94;341574;28;1825;-72
2022/11/29 00:20:17;;;;;;;28.88;15.35;;;;;;;8.76;84.77;99235.25;343392;28;1819;-72
2022/11/29 00:20:30;;;;;;;26.58;15.27;;;;;;;8.74;84.88;99232.69;342560;28;1266;-72
2022/11/29 00:20:42;;;;;;;26.10;15.25;;;;;;;8.77;84.91;99236.91;342195;28;1208;-72
2022/11/29 00:20:54;;;;;;;25.33;15.10;;;;;;;8.73;84.78;99235.31;342312;28;1511;-72
2022/11/29 00:21:07;;;;;;;26.42;15.23;;;;;;;8.71;85.00;99235.41;342973;28;1108;-72
2022/11/29 00:21:19;;;;;;;26.55;15.55;;;;;;;8.65;84.88;99238.16;344421;28;1248;-72
2022/11/29 00:21:31;;;;;;;27.25;15.63;;;;;;;8.66;84.98;99234.69;344555;28;2135;-72
2022/11/29 00:21:43;;;;;;;27.33;15.52;;;;;;;8.65;85.21;99240.75;345033;28;1210;-72
2022/11/29 00:21:55;;;;;;;26.57;15.30;;;;;;;8.61;85.14;99231.38;345441;28;1064;-72
2022/11/29 00:22:07;;;;;;;27.52;15.30;;;;;;;8.62;84.98;99233.09;346811;28;1839;-72
2022/11/29 00:22:19;;;;;;;26.95;15.68;;;;;;;8.59;84.90;99235.75;344013;28;1696;-72
2022/11/29 00:22:31;;;;;;;26.13;15.73;;;;;;;8.59;84.70;99240.94;342972;28;1711;-72
2022/11/29 00:22:43;;;;;;;25.88;15.52;;;;;;;8.54;84.33;99235.06;342150;28;1857;-72
2022/11/29 00:22:55;;;;;;;27.55;15.50;;;;;;;8.53;84.37;99234.22;342229;28;1174;-72
2022/11/29 00:23:07;;;;;;;29.73;15.48;;;;;;;8.49;84.06;99237.81;341842;28;1888;-72
2022/11/29 00:23:19;;;;;;;30.50;15.88;;;;;;;8.48;84.11;99235.25;341974;28;1617;-72
2022/11/29 00:23:31;;;;;;;29.15;15.55;;;;;;;8.46;84.10;99231.88;343790;28;1240;-72
2022/11/29 00:23:43;;;;;;;27.42;15.38;;;;;;;8.44;84.13;99228.47;343730;28;1155;-72
2022/11/29 00:23:55;;;;;;;28.00;15.50;;;;;;;8.39;83.99;99226.84;343714;28;1149;-72
2022/11/29 00:24:08;;;;;;;29.25;15.55;;;;;;;8.39;83.84;99232.03;343667;28;1191;-72
2022/11/29 00:24:20;;;;;;;27.88;15.55;;;;;;;8.36;83.84;99232.09;343227;28;2154;-71
2022/11/29 00:24:33;;;;;;;25.77;15.32;;;;;;;8.33;83.63;99232.22;344477;28;1856;-71
2022/11/29 00:24:45;;;;;;;26.55;15.40;;;;;;;8.32;83.81;99235.69;344133;28;1031;-71
2022/11/29 00:24:57;;;;;;;29.45;15.73;;;;;;;8.29;83.67;99229.75;345365;28;969;-71
2022/11/29 00:25:09;;;;;;;31.42;15.70;;;;;;;8.29;83.90;99230.59;344776;28;1031;-72
2022/11/29 00:25:21;;;;;;;32.80;15.98;;;;;;;8.28;84.41;99228.91;346091;28;1321;-72
2022/11/29 00:25:33;;;;;;;31.25;16.10;;;;;;;8.26;84.98;99230.69;345866;28;1089;-72
2022/11/29 00:25:45;;;;;;;30.50;16.73;;;;;;;8.31;85.25;99235.72;343456;28;1621;-72
2022/11/29 00:26:07;;;;;;;30.10;17.10;;;;;;;8.37;85.56;99233.81;344595;28;1493;-72
2022/11/29 00:26:19;;;;;;;28.63;16.50;;;;;;;8.42;85.55;99231.09;344407;28;2113;-72
2022/11/29 00:26:31;;;;;;;27.70;16.25;;;;;;;8.48;85.56;99230.06;343721;28;1830;-72
2022/11/29 00:26:42;;;;;;;28.65;16.38;;;;;;;8.53;85.25;99235.94;343652;28;1737;-72
2022/11/29 00:26:54;;;;;;;27.77;16.02;;;;;;;8.56;85.12;99236.72;343801;28;1163;-72
2022/11/29 00:27:06;;;;;;;28.55;16.08;;;;;;;8.62;85.32;99230.50;345086;28;1043;-72
2022/11/29 00:27:18;;;;;;;27.13;15.32;;;;;;;8.66;85.19;99234.69;343466;28;1272;-72
2022/11/29 00:27:31;;;;;;;26.73;15.30;;;;;;;8.70;85.12;99241.47;343603;28;1075;-72
2022/11/29 00:27:43;;;;;;;24.80;15.07;;;;;;;8.73;84.96;99230.13;344035;28;1090;-72
2022/11/29 00:27:55;;;;;;;26.00;15.63;;;;;;;8.76;84.85;99228.31;342972;28;1818;-72
2022/11/29 00:28:07;;;;;;;26.05;16.13;;;;;;;8.80;84.96;99231.66;343936;28;1769;-72
2022/11/29 00:28:19;;;;;;;26.55;16.40;;;;;;;8.83;84.76;99238.47;341110;28;1755;-72
2022/11/29 00:28:31;;;;;;;27.15;16.25;;;;;;;8.87;84.69;99232.28;342518;28;1326;-72
2022/11/29 00:28:43;;;;;;;27.30;16.00;;;;;;;8.90;84.98;99232.22;342252;28;1075;-72
2022/11/29 00:28:55;;;;;;;31.52;16.65;;;;;;;8.94;84.91;99233.81;341776;28;1791;-72
2022/11/29 00:29:11;;;;;;;30.73;16.42;;;;;;;8.96;85.01;99234.59;342466;28;1080;-72
2022/11/29 00:29:22;;;;;;;27.98;16.33;;;;;;;9.00;84.69;99233.59;342470;28;2085;-72
2022/11/29 00:29:34;;;;;;;27.52;16.15;;;;;;;9.03;84.79;99238.66;343708;28;1640;-72
2022/11/29 00:29:46;;;;;;;28.70;15.85;;;;;;;9.05;84.64;99229.09;344859;28;1406;-72
2022/11/29 00:29:58;;;;;;;25.35;14.52;;;;;;;9.08;84.61;99231.59;343042;28;2082;-72
2022/11/29 00:30:11;;;;;;;25.92;14.10;;;;;;;9.10;84.37;99232.41;343460;28;2026;-72
2022/11/29 00:30:23;;;;;;;25.63;14.30;;;;;;;9.13;84.18;99227.09;344576;28;1332;-72
2022/11/29 00:30:35;;;;;;;25.15;14.95;;;;;;;9.15;84.24;99238.25;343750;28;1955;-72
2022/11/29 00:30:48;;;;;;;24.38;14.93;;;;;;;9.16;84.04;99234.78;343517;28;1305;-72
2022/11/29 00:31:00;;;;;;;24.50;14.90;;;;;;;9.20;84.22;99236.38;342205;28;1075;-72
2022/11/29 00:31:21;;;;;;;25.65;14.95;;;;;;;9.23;83.99;99239.75;342131;28;1021;-72
2022/11/29 00:31:33;;;;;;;25.60;14.98;;;;;;;9.25;83.78;99227.59;341453;28;1074;-72
2022/11/29 00:31:45;;;;;;;23.63;14.27;;;;;;;9.28;84.08;99232.69;341177;29;1241;-72
2022/11/29 00:31:58;;;;;;;24.20;13.88;;;;;;;9.28;83.79;99223.16;339921;29;1089;-72
2022/11/29 00:32:09;;;;;;;26.20;14.70;;;;;;;9.31;84.26;99236.00;339291;29;2098;-72
2022/11/29 00:32:21;;;;;;;27.20;15.57;;;;;;;9.33;83.72;99230.78;340937;29;1327;-72
2022/11/29 00:32:34;;;;;;;27.83;15.55;;;;;;;9.33;83.97;99226.41;340009;29;1833;-72
2022/11/29 00:32:46;;;;;;;26.70;15.10;;;;;;;9.37;83.79;99237.53;341342;29;1249;-72
2022/11/29 00:32:59;;;;;;;26.58;14.43;;;;;;;9.38;83.79;99237.50;341126;28;1969;-72
2022/11/29 00:33:11;;;;;;;29.25;15.05;;;;;;;9.40;83.54;99229.66;342858;28;2004;-72
2022/11/29 00:33:23;;;;;;;33.50;15.90;;;;;;;9.41;83.57;99233.94;341845;28;1334;-72
2022/11/29 00:33:35;;;;;;;30.52;15.45;;;;;;;9.42;83.70;99235.66;341810;28;1145;-72
2022/11/29 00:33:48;;;;;;;28.15;15.20;;;;;;;9.44;83.17;99231.25;343529;28;1333;-71
2022/11/29 00:34:03;;;;;;;33.30;15.98;;;;;;;9.45;83.02;99227.75;344358;28;1126;-72
2022/11/29 00:34:15;;;;;;;33.60;16.17;;;;;;;9.44;83.14;99228.66;345118;28;1223;-72
2022/11/29 00:34:27;;;;;;;27.80;15.60;;;;;;;9.44;82.96;99232.97;342659;28;1824;-72
2022/11/29 00:34:39;;;;;;;27.65;15.68;;;;;;;9.44;82.97;99226.06;342222;28;1107;-72
2022/11/29 00:34:51;;;;;;;26.27;15.45;;;;;;;9.47;82.94;99230.28;342216;28;1100;-72
2022/11/29 00:35:03;;;;;;;27.13;14.95;;;;;;;9.48;82.79;99232.84;342009;28;1670;-72
2022/11/29 00:35:20;;;;;;;26.00;13.90;;;;;;;9.49;82.92;99226.75;344090;28;1244;-72
2022/11/29 00:35:32;;;;;;;25.08;13.82;;;;;;;9.51;82.81;99230.13;344991;28;1675;-72
2022/11/29 00:35:44;;;;;;;23.95;13.98;;;;;;;9.51;82.80;99230.13;345050;28;1329;-72
2022/11/29 00:36:00;;;;;;;24.00;14.23;;;;;;;9.52;82.65;99233.59;345536;28;710;-72
2022/11/29 00:36:13;;;;;;;22.80;13.75;;;;;;;9.54;82.79;99234.38;343436;28;1997;-72
2022/11/29 00:36:26;;;;;;;23.17;13.90;;;;;;;9.57;82.81;99235.09;344717;28;1532;-72
2022/11/29 00:36:38;;;;;;;23.90;14.95;;;;;;;9.57;82.83;99229.91;345185;28;1045;-72
2022/11/29 00:36:50;;;;;;;24.33;14.85;;;;;;;9.56;82.80;99227.38;344568;28;1807;-72
2022/11/29 00:37:02;;;;;;;22.90;14.02;;;;;;;9.56;82.76;99228.22;344127;28;1144;-72
2022/11/29 00:37:14;;;;;;;24.55;13.95;;;;;;;9.56;82.77;99227.38;342025;28;6067;-72
2022/11/29 00:37:26;;;;;;;25.02;14.30;;;;;;;9.57;82.58;99235.09;343584;28;2817;-72
2022/11/29 00:37:38;;;;;;;26.67;14.57;;;;;;;9.58;82.34;99231.63;344091;28;1793;-72
2022/11/29 00:37:51;;;;;;;25.08;14.23;;;;;;;9.58;82.71;99231.63;343513;28;5578;-72
2022/11/29 00:38:03;;;;;;;23.50;13.93;;;;;;;9.60;82.40;99234.16;342056;28;1272;-72
2022/11/29 00:38:15;;;;;;;23.17;13.63;;;;;;;9.63;82.42;99235.78;342114;28;1052;-72
2022/11/29 00:38:27;;;;;;;23.55;13.77;;;;;;;9.64;82.34;99232.28;342399;28;1262;-72
2022/11/29 00:38:39;;;;;;;23.02;13.35;;;;;;;9.65;82.49;99236.59;341784;28;1778;-72
2022/11/29 00:38:52;;;;;;;23.02;13.15;;;;;;;9.66;82.27;99233.06;343396;28;1146;-72
2022/11/29 00:39:04;;;;;;;23.55;13.02;;;;;;;9.66;82.66;99230.47;343542;28;1035;-72
2022/11/29 00:39:16;;;;;;;21.92;12.82;;;;;;;9.67;82.27;99235.63;344775;28;1329;-72
2022/11/29 00:39:28;;;;;;;21.48;12.75;;;;;;;9.69;82.24;99232.97;344038;28;2045;-72
2022/11/29 00:39:40;;;;;;;22.63;13.15;;;;;;;9.69;82.21;99232.97;344783;28;1914;-72
2022/11/29 00:39:52;;;;;;;23.83;13.55;;;;;;;9.70;82.46;99232.06;343852;28;2493;-72
2022/11/29 00:40:05;;;;;;;21.80;12.70;;;;;;;9.71;82.09;99231.19;344313;28;1767;-72
2022/11/29 00:40:17;;;;;;;19.65;12.02;;;;;;;9.72;82.32;99232.88;343103;28;1275;-72
2022/11/29 00:40:29;;;;;;;19.83;12.30;;;;;;;9.73;82.53;99226.78;342498;28;1856;-72
2022/11/29 00:40:41;;;;;;;19.45;12.48;;;;;;;9.74;82.29;99228.50;342851;28;1741;-72
2022/11/29 00:40:53;;;;;;;20.27;12.45;;;;;;;9.74;81.88;99231.09;343231;28;1757;-72
2022/11/29 00:41:06;;;;;;;21.00;12.55;;;;;;;9.74;81.93;99231.91;343226;28;2206;-72
2022/11/29 00:41:19;;;;;;;20.90;12.63;;;;;;;9.74;81.84;99231.09;342755;28;1365;-72
2022/11/29 00:41:31;;;;;;;20.25;12.40;;;;;;;9.74;81.82;99226.72;342374;28;1167;-72
2022/11/29 00:41:44;;;;;;;19.55;12.43;;;;;;;9.73;81.88;99224.19;342185;28;1079;-72
2022/11/29 00:41:56;;;;;;;19.42;12.05;;;;;;;9.73;81.85;99231.97;340773;28;2003;-72
2022/11/29 00:42:08;;;;;;;22.10;12.43;;;;;;;9.72;81.49;99231.13;340540;28;1295;-72
2022/11/29 00:42:20;;;;;;;24.80;12.82;;;;;;;9.72;81.50;99228.53;341854;28;1247;-72
2022/11/29 00:42:32;;;;;;;24.73;12.95;;;;;;;9.72;81.63;99231.13;342540;28;1090;-72
2022/11/29 00:42:44;;;;;;;23.40;13.18;;;;;;;9.74;81.87;99231.09;343259;28;1456;-71
2022/11/29 00:42:56;;;;;;;22.30;12.70;;;;;;;9.74;81.77;99225.91;342199;28;1027;-72
2022/11/29 00:43:08;;;;;;;20.90;12.55;;;;;;;9.75;81.81;99232.75;343301;28;2196;-72
2022/11/29 00:43:20;;;;;;;22.08;12.65;;;;;;;9.76;81.63;99229.28;343358;28;1285;-72
2022/11/29 00:43:32;;;;;;;23.63;13.27;;;;;;;9.79;81.63;99229.16;341823;28;1649;-72
2022/11/29 00:43:44;;;;;;;21.38;12.50;;;;;;;9.79;81.80;99234.34;342432;28;1605;-72
2022/11/29 00:43:56;;;;;;;21.27;12.38;;;;;;;9.80;81.48;99230.88;342493;28;796;-72
2022/11/29 00:44:09;;;;;;;19.95;11.98;;;;;;;9.80;81.33;99230.88;342404;28;1921;-72
2022/11/29 00:44:27;;;;;;;20.92;12.02;;;;;;;9.82;81.47;99229.06;342054;28;1042;-72
2022/11/29 00:44:39;;;;;;;20.38;12.32;;;;;;;9.82;81.55;99229.06;342442;28;1706;-72
2022/11/29 00:44:52;;;;;;;19.63;12.18;;;;;;;9.83;81.21;99228.13;342868;28;1726;-72
2022/11/29 00:45:04;;;;;;;19.65;12.20;;;;;;;9.84;81.22;99231.56;343192;28;2144;-72
2022/11/29 00:45:16;;;;;;;19.75;12.57;;;;;;;9.84;81.02;99232.44;343215;28;1126;-72
2022/11/29 00:45:28;;;;;;;21.17;12.50;;;;;;;9.85;80.95;99233.28;343697;28;1206;-72
2022/11/29 00:45:40;;;;;;;19.65;12.35;;;;;;;9.86;80.91;99234.97;343495;28;1024;-72
2022/11/29 00:45:53;;;;;;;18.40;11.82;;;;;;;9.86;81.16;99233.22;343639;28;1294;-72
2022/11/29 00:46:07;;;;;;;19.42;12.15;;;;;;;9.87;80.77;99227.13;342278;28;1890;-72
2022/11/29 00:46:19;;;;;;;22.38;12.93;;;;;;;9.88;80.68;99228.81;342043;28;1809;-72
2022/11/29 00:46:31;;;;;;;23.35;12.82;;;;;;;9.87;81.03;99232.31;343272;28;1716;-72
2022/11/29 00:46:43;;;;;;;21.20;12.40;;;;;;;9.88;80.62;99231.44;342783;28;1732;-72
2022/11/29 00:46:55;;;;;;;20.48;12.60;;;;;;;9.88;81.06;99234.03;343949;28;1649;-72
2022/11/29 00:47:08;;;;;;;19.20;12.52;;;;;;;9.89;80.43;99232.25;342353;28;1238;-72
2022/11/29 00:47:20;;;;;;;19.05;12.55;;;;;;;9.90;80.95;99233.94;342075;28;2037;-71
2022/11/29 00:47:32;;;;;;;19.73;12.40;;;;;;;9.90;80.51;99227.03;342206;28;1043;-73
2022/11/29 00:47:44;;;;;;;20.30;12.68;;;;;;;9.90;80.32;99227.03;341432;28;1668;-72
2022/11/29 00:47:56;;;;;;;22.58;12.70;;;;;;;9.91;80.80;99230.47;342195;28;1262;-72
2022/11/29 00:48:08;;;;;;;22.58;12.88;;;;;;;9.92;80.40;99229.53;342831;28;1343;-71
2022/11/29 00:48:20;;;;;;;23.98;13.20;;;;;;;9.92;80.27;99230.41;341529;28;1208;-71
2022/11/29 00:48:32;;;;;;;22.13;12.70;;;;;;;9.92;80.10;99229.53;340413;28;1820;-72
2022/11/29 00:48:44;;;;;;;21.35;12.55;;;;;;;9.92;80.27;99238.19;341263;28;1519;-71
2022/11/29 00:48:56;;;;;;;23.33;12.68;;;;;;;9.91;80.45;99230.47;340709;29;1305;-71
2022/11/29 00:49:08;;;;;;;23.17;12.50;;;;;;;9.91;80.47;99228.69;341118;28;1035;-71
2022/11/29 00:49:20;;;;;;;23.45;12.73;;;;;;;9.92;80.32;99225.22;342807;28;1302;-71
2022/11/29 00:49:32;;;;;;;21.40;12.90;;;;;;;9.93;80.72;99226.06;341945;28;2041;-71
2022/11/29 00:49:44;;;;;;;21.83;13.20;;;;;;;9.94;80.07;99231.19;342143;28;2200;-71
2022/11/29 00:49:56;;;;;;;21.00;13.20;;;;;;;9.92;80.25;99225.22;342329;28;1039;-71
2022/11/29 00:50:08;;;;;;;21.02;12.95;;;;;;;9.94;80.12;99230.31;342177;28;1154;-71
2022/11/29 00:50:20;;;;;;;21.52;12.73;;;;;;;9.94;80.41;99228.59;341396;28;1725;-71
2022/11/29 00:50:32;;;;;;;22.33;13.20;;;;;;;9.95;80.26;99225.09;343816;28;1038;-71
2022/11/29 00:50:44;;;;;;;22.75;13.40;;;;;;;9.95;80.50;99229.44;343712;28;1838;-71
2022/11/29 00:50:56;;;;;;;22.15;13.57;;;;;;;9.95;80.26;99230.28;344744;28;1038;-71
2022/11/29 00:51:09;;;;;;;20.95;12.93;;;;;;;9.96;80.08;99229.41;343729;28;945;-72
2022/11/29 00:51:21;;;;;;;19.75;11.75;;;;;;;9.99;80.35;99231.84;343548;28;1271;-71
2022/11/29 00:51:33;;;;;;;19.20;11.35;;;;;;;9.99;80.27;99234.47;344101;28;778;-71
2022/11/29 00:51:45;;;;;;;20.77;11.95;;;;;;;10.00;80.72;99230.97;344359;28;1783;-71
2022/11/29 00:51:58;;;;;;;19.33;11.88;;;;;;;10.00;79.97;99233.56;343463;28;1467;-71
2022/11/29 00:52:10;;;;;;;19.08;11.95;;;;;;;9.99;80.36;99229.25;343485;28;1080;-71
2022/11/29 00:52:22;;;;;;;18.13;12.13;;;;;;;9.98;80.09;99235.38;342029;28;1224;-71
2022/11/29 00:52:34;;;;;;;17.77;11.80;;;;;;;9.98;80.15;99230.19;341906;28;1043;-72
2022/11/29 00:52:47;;;;;;;21.20;12.00;;;;;;;9.97;80.21;99231.06;342134;28;1075;-71
2022/11/29 00:52:58;;;;;;;22.25;12.10;;;;;;;9.95;80.11;99238.06;341927;28;1916;-71
2022/11/29 00:53:11;;;;;;;22.25;11.93;;;;;;;9.96;79.82;99233.72;343557;28;1780;-71
2022/11/29 00:53:23;;;;;;;20.08;11.88;;;;;;;9.95;80.32;99235.47;342715;28;1686;-71
2022/11/29 00:53:36;;;;;;;20.38;11.90;;;;;;;9.95;80.16;99225.09;343595;28;1370;-71
2022/11/29 00:53:48;;;;;;;20.20;11.93;;;;;;;9.96;80.21;99236.31;343549;28;1107;-71
2022/11/29 00:54:00;;;;;;;23.83;12.48;;;;;;;9.96;80.03;99231.13;342980;28;1875;-71
2022/11/29 00:54:12;;;;;;;23.45;12.70;;;;;;;9.97;80.29;99231.06;344237;28;1831;-71
2022/11/29 00:54:24;;;;;;;23.27;12.68;;;;;;;9.97;80.16;99233.66;344308;28;1259;-71
2022/11/29 00:54:36;;;;;;;21.75;12.80;;;;;;;9.97;79.87;99227.63;345075;28;1823;-71
2022/11/29 00:54:48;;;;;;;21.08;12.57;;;;;;;9.99;80.36;99233.63;345885;28;1107;-71
2022/11/29 00:55:00;;;;;;;20.60;12.13;;;;;;;9.99;80.18;99234.47;344432;28;1742;-71
2022/11/29 00:55:12;;;;;;;20.67;11.98;;;;;;;9.99;79.86;99231.84;344390;28;1887;-72
2022/11/29 00:55:24;;;;;;;23.27;12.43;;;;;;;9.99;79.85;99228.44;343740;28;3621;-71
2022/11/29 00:55:36;;;;;;;23.45;12.80;;;;;;;10.00;80.43;99233.56;342892;28;2997;-71
2022/11/29 00:55:50;;;;;;;24.00;12.43;;;;;;;10.02;80.03;99222.25;343573;28;1104;-71
2022/11/29 00:56:03;;;;;;;22.48;12.30;;;;;;;10.02;79.93;99232.66;343550;28;1151;-71
2022/11/29 00:56:15;;;;;;;24.40;12.95;;;;;;;10.03;79.85;99232.59;343573;28;1202;-71
2022/11/29 00:56:27;;;;;;;22.90;12.60;;;;;;;10.03;80.08;99232.59;342446;28;1097;-71
2022/11/29 00:56:39;;;;;;;21.98;12.13;;;;;;;10.03;79.68;99231.75;342233;28;1180;-71
2022/11/29 00:56:51;;;;;;;19.77;11.60;;;;;;;10.03;79.49;99231.75;342411;28;1249;-71
2022/11/29 00:57:03;;;;;;;18.50;11.55;;;;;;;10.03;79.95;99231.75;343756;28;1287;-71
2022/11/29 00:57:15;;;;;;;19.55;11.60;;;;;;;10.04;79.90;99233.44;343646;28;1147;-71
2022/11/29 00:57:27;;;;;;;21.52;11.77;;;;;;;10.05;79.67;99237.75;343576;28;3560;-71
2022/11/29 00:57:39;;;;;;;23.50;12.50;;;;;;;10.05;79.67;99230.78;344191;28;1111;-71
2022/11/29 00:57:51;;;;;;;23.45;12.80;;;;;;;10.06;79.80;99226.44;344947;28;1170;-71
2022/11/29 00:58:04;;;;;;;20.52;12.52;;;;;;;10.06;79.96;99231.63;343463;28;1200;-71
2022/11/29 00:58:16;;;;;;;20.65;12.32;;;;;;;10.07;79.71;99231.59;343584;28;1027;-71
2022/11/29 00:58:28;;;;;;;19.23;11.77;;;;;;;10.08;79.65;99235.03;342191;28;1193;-71
2022/11/29 00:58:43;;;;;;;18.73;11.38;;;;;;;10.08;79.34;99230.69;342109;28;1069;-71
2022/11/29 00:58:56;;;;;;;20.75;12.20;;;;;;;10.07;80.02;99226.38;341961;28;1728;-71
2022/11/29 00:59:08;;;;;;;21.75;12.40;;;;;;;10.08;79.70;99225.50;341926;28;1825;-71
2022/11/29 00:59:20;;;;;;;22.33;11.82;;;;;;;10.07;79.85;99230.75;342834;28;1304;-71
2022/11/29 00:59:32;;;;;;;22.98;11.63;;;;;;;10.08;79.93;99235.03;342122;28;1055;-71
2022/11/29 00:59:45;;;;;;;22.98;11.85;;;;;;;10.06;79.46;99231.63;341913;28;1622;-71
2022/11/29 00:59:57;;;;;;;21.75;11.98;;;;;;;10.06;79.90;99231.63;342562;28;768;-71
2022/11/29 01:00:10;;;;;;;20.98;12.43;;;;;;;10.07;79.73;99238.53;343020;28;1245;-71
2022/11/29 01:00:22;;;;;;;22.23;12.75;;;;;;;10.07;79.54;99230.75;342190;28;1597;-71